sensor_id;sensor_type;location;lat;lon;timestamp;pressure;altitude;pressure_sealevel;temperature;humidity
54308;BME280;40208;39.778;2.710;2023-02-24T00:01:13;100736.84;;;14.05;100.00
54308;BME280;40208;39.778;2.710;2023-02-24T00:04:03;100730.78;;;14.17;100.00
54308;BME280;40208;39.778;2.710;2023-02-24T00:06:50;100733.16;;;14.07;100.00
54308;BME280;40208;39.778;2.710;2023-02-24T00:09:36;100733.16;;;14.07;100.00
54308;BME280;40208;39.778;2.710;2023-02-24T00:12:22;100735.69;;;13.94;100.00
54308;BME280;40208;39.778;2.710;2023-02-24T00:15:08;100736.25;;;13.99;100.00
54308;BME280;40208;39.778;2.710;2023-02-24T00:17:53;100736.69;;;14.36;100.00
54308;BME280;40208;39.778;2.710;2023-02-24T00:20:37;100725.59;;;14.14;100.00
54308;BME280;40208;39.778;2.710;2023-02-24T00:23:22;100712.56;;;14.24;100.00
54308;BME280;40208;39.778;2.710;2023-02-24T00:26:08;100717.63;;;14.42;100.00
54308;BME280;40208;39.778;2.710;2023-02-24T00:28:53;100716.28;;;14.21;100.00
54308;BME280;40208;39.778;2.710;2023-02-24T00:31:38;100704.94;;;14.17;100.00
54308;BME280;40208;39.778;2.710;2023-02-24T00:34:25;100714.94;;;14.14;100.00
54308;BME280;40208;39.778;2.710;2023-02-24T00:37:10;100703.81;;;14.21;100.00
54308;BME280;40208;39.778;2.710;2023-02-24T00:39:58;100714.00;;;14.15;100.00
54308;BME280;40208;39.778;2.710;2023-02-24T00:42:43;100718.56;;;14.13;100.00
54308;BME280;40208;39.778;2.710;2023-02-24T00:45:28;100714.34;;;14.09;100.00
54308;BME280;40208;39.778;2.710;2023-02-24T00:48:14;100714.94;;;14.28;100.00
54308;BME280;40208;39.778;2.710;2023-02-24T00:50:59;100680.50;;;14.09;100.00
54308;BME280;40208;39.778;2.710;2023-02-24T00:53:44;100696.44;;;14.25;100.00
54308;BME280;40208;39.778;2.710;2023-02-24T00:56:29;100704.53;;;14.24;100.00
54308;BME280;40208;39.778;2.710;2023-02-24T00:59:15;100700.47;;;14.18;100.00
54308;BME280;40208;39.778;2.710;2023-02-24T01:02:02;100697.03;;;14.30;100.00
54308;BME280;40208;39.778;2.710;2023-02-24T01:04:47;100696.16;;;14.30;100.00
54308;BME280;40208;39.778;2.710;2023-02-24T01:07:34;100687.97;;;14.18;100.00
54308;BME280;40208;39.778;2.710;2023-02-24T01:10:18;100694.06;;;14.20;100.00
54308;BME280;40208;39.778;2.710;2023-02-24T01:13:05;100685.22;;;14.20;100.00
54308;BME280;40208;39.778;2.710;2023-02-24T01:15:50;100681.78;;;14.18;100.00
54308;BME280;40208;39.778;2.710;2023-02-24T01:18:42;100689.78;;;14.18;100.00
54308;BME280;40208;39.778;2.710;2023-02-24T01:21:26;100689.56;;;14.21;100.00
54308;BME280;40208;39.778;2.710;2023-02-24T01:24:12;100684.72;;;14.13;100.00
54308;BME280;40208;39.778;2.710;2023-02-24T01:26:58;100676.44;;;14.18;100.00
54308;BME280;40208;39.778;2.710;2023-02-24T01:29:44;100682.75;;;14.17;100.00
54308;BME280;40208;39.778;2.710;2023-02-24T01:32:29;100689.00;;;14.16;100.00
54308;BME280;40208;39.778;2.710;2023-02-24T01:35:15;100691.38;;;14.06;100.00
54308;BME280;40208;39.778;2.710;2023-02-24T01:38:00;100686.53;;;14.13;100.00
54308;BME280;40208;39.778;2.710;2023-02-24T01:40:44;100697.31;;;14.11;100.00
54308;BME280;40208;39.778;2.710;2023-02-24T01:43:52;100690.91;;;14.14;100.00
54308;BME280;40208;39.778;2.710;2023-02-24T01:46:39;100690.53;;;14.20;100.00
54308;BME280;40208;39.778;2.710;2023-02-24T01:49:28;100691.69;;;14.45;100.00
54308;BME280;40208;39.778;2.710;2023-02-24T01:52:21;100690.53;;;14.20;100.00
54308;BME280;40208;39.778;2.710;2023-02-24T01:55:10;100680.06;;;14.17;100.00
54308;BME280;40208;39.778;2.710;2023-02-24T01:57:57;100676.84;;;14.26;100.00
54308;BME280;40208;39.778;2.710;2023-02-24T02:00:43;100675.09;;;14.39;100.00
54308;BME280;40208;39.778;2.710;2023-02-24T02:03:30;100673.66;;;14.48;100.00
54308;BME280;40208;39.778;2.710;2023-02-24T02:06:17;100657.44;;;14.51;100.00
54308;BME280;40208;39.778;2.710;2023-02-24T02:09:02;100654.50;;;14.56;100.00
54308;BME280;40208;39.778;2.710;2023-02-24T02:11:47;100653.84;;;14.67;100.00
54308;BME280;40208;39.778;2.710;2023-02-24T02:14:33;100645.81;;;14.67;100.00
54308;BME280;40208;39.778;2.710;2023-02-24T02:17:38;100650.50;;;14.63;100.00
54308;BME280;40208;39.778;2.710;2023-02-24T02:35:07;100627.53;;;14.32;100.00
54308;BME280;40208;39.778;2.710;2023-02-24T02:38:16;100616.28;;;14.27;100.00
54308;BME280;40208;39.778;2.710;2023-02-24T02:41:16;100609.38;;;14.51;100.00
54308;BME280;40208;39.778;2.710;2023-02-24T02:44:09;100621.91;;;14.36;100.00
54308;BME280;40208;39.778;2.710;2023-02-24T02:46:59;100614.81;;;14.35;100.00
54308;BME280;40208;39.778;2.710;2023-02-24T02:49:46;100618.56;;;14.18;100.00
54308;BME280;40208;39.778;2.710;2023-02-24T02:52:34;100626.25;;;14.37;100.00
54308;BME280;40208;39.778;2.710;2023-02-24T02:55:27;100616.28;;;14.27;100.00
54308;BME280;40208;39.778;2.710;2023-02-24T02:58:16;100617.88;;;14.43;100.00
54308;BME280;40208;39.778;2.710;2023-02-24T03:01:03;100614.53;;;14.54;100.00
54308;BME280;40208;39.778;2.710;2023-02-24T03:03:51;100618.53;;;14.61;100.00
54308;BME280;40208;39.778;2.710;2023-02-24T03:06:44;100620.75;;;14.55;100.00
54308;BME280;40208;39.778;2.710;2023-02-24T03:09:35;100628.25;;;14.48;100.00
54308;BME280;40208;39.778;2.710;2023-02-24T03:12:22;100628.47;;;14.59;100.00
54308;BME280;40208;39.778;2.710;2023-02-24T03:15:08;100633.50;;;14.50;100.00
54308;BME280;40208;39.778;2.710;2023-02-24T03:18:04;100633.63;;;14.34;100.00
54308;BME280;40208;39.778;2.710;2023-02-24T03:20:53;100636.09;;;14.23;100.00
54308;BME280;40208;39.778;2.710;2023-02-24T03:23:44;100645.44;;;14.15;100.00
54308;BME280;40208;39.778;2.710;2023-02-24T03:26:35;100644.81;;;14.12;100.00
54308;BME280;40208;39.778;2.710;2023-02-24T03:29:28;100647.28;;;14.15;100.00
54308;BME280;40208;39.778;2.710;2023-02-24T03:32:17;100649.25;;;14.11;100.00
54308;BME280;40208;39.778;2.710;2023-02-24T03:35:08;100645.53;;;14.14;100.00
54308;BME280;40208;39.778;2.710;2023-02-24T03:37:55;100648.22;;;14.14;100.00
54308;BME280;40208;39.778;2.710;2023-02-24T03:40:42;100654.59;;;14.11;100.00
54308;BME280;40208;39.778;2.710;2023-02-24T03:43:30;100665.19;;;14.13;100.00
54308;BME280;40208;39.778;2.710;2023-02-24T03:46:16;100655.28;;;14.15;100.00
54308;BME280;40208;39.778;2.710;2023-02-24T03:49:04;100656.69;;;14.06;100.00
54308;BME280;40208;39.778;2.710;2023-02-24T03:54:47;100664.22;;;13.99;100.00
54308;BME280;40208;39.778;2.710;2023-02-24T04:06:45;100681.25;;;13.83;100.00
54308;BME280;40208;39.778;2.710;2023-02-24T04:09:52;100673.75;;;13.89;100.00
54308;BME280;40208;39.778;2.710;2023-02-24T04:12:42;100672.97;;;13.87;100.00
54308;BME280;40208;39.778;2.710;2023-02-24T04:15:31;100675.91;;;13.83;100.00
54308;BME280;40208;39.778;2.710;2023-02-24T04:18:21;100683.56;;;13.89;100.00
54308;BME280;40208;39.778;2.710;2023-02-24T04:21:07;100678.59;;;13.97;100.00
54308;BME280;40208;39.778;2.710;2023-02-24T04:23:52;100678.50;;;13.84;100.00
54308;BME280;40208;39.778;2.710;2023-02-24T04:26:38;100681.75;;;13.89;100.00
54308;BME280;40208;39.778;2.710;2023-02-24T04:29:27;100673.75;;;13.89;100.00
54308;BME280;40208;39.778;2.710;2023-02-24T04:32:20;100679.72;;;13.78;100.00
54308;BME280;40208;39.778;2.710;2023-02-24T04:35:07;100680.72;;;13.62;100.00
54308;BME280;40208;39.778;2.710;2023-02-24T04:37:52;100683.19;;;13.50;100.00
54308;BME280;40208;39.778;2.710;2023-02-24T04:40:38;100695.31;;;13.40;100.00
54308;BME280;40208;39.778;2.710;2023-02-24T04:43:26;100702.72;;;13.19;100.00
54308;BME280;40208;39.778;2.710;2023-02-24T04:46:12;100697.56;;;13.00;100.00
54308;BME280;40208;39.778;2.710;2023-02-24T04:48:57;100692.28;;;12.84;100.00
54308;BME280;40208;39.778;2.710;2023-02-24T04:51:43;100685.13;;;12.85;100.00
54308;BME280;40208;39.778;2.710;2023-02-24T04:54:28;100690.81;;;12.63;100.00
54308;BME280;40208;39.778;2.710;2023-02-24T04:57:13;100676.63;;;12.46;100.00
54308;BME280;40208;39.778;2.710;2023-02-24T04:59:58;100694.44;;;12.28;100.00
54308;BME280;40208;39.778;2.710;2023-02-24T05:02:43;100699.88;;;12.09;100.00
54308;BME280;40208;39.778;2.710;2023-02-24T05:05:27;100699.84;;;11.94;100.00
54308;BME280;40208;39.778;2.710;2023-02-24T05:08:12;100698.94;;;11.93;100.00
54308;BME280;40208;39.778;2.710;2023-02-24T05:10:59;100708.16;;;11.86;100.00
54308;BME280;40208;39.778;2.710;2023-02-24T05:13:47;100701.91;;;11.70;100.00
54308;BME280;40208;39.778;2.710;2023-02-24T05:16:31;100701.69;;;11.57;100.00
54308;BME280;40208;39.778;2.710;2023-02-24T05:19:17;100700.59;;;11.61;100.00
54308;BME280;40208;39.778;2.710;2023-02-24T05:22:20;100711.06;;;11.81;100.00
54308;BME280;40208;39.778;2.710;2023-02-24T05:25:06;100712.47;;;11.71;100.00
54308;BME280;40208;39.778;2.710;2023-02-24T05:27:51;100698.72;;;11.80;100.00
54308;BME280;40208;39.778;2.710;2023-02-24T05:30:36;100705.06;;;11.95;100.00
54308;BME280;40208;39.778;2.710;2023-02-24T05:33:21;100701.69;;;12.09;100.00
54308;BME280;40208;39.778;2.710;2023-02-24T05:36:07;100703.97;;;11.99;100.00
54308;BME280;40208;39.778;2.710;2023-02-24T05:38:53;100703.72;;;11.69;100.00
54308;BME280;40208;39.778;2.710;2023-02-24T05:41:41;100701.22;;;11.66;100.00
54308;BME280;40208;39.778;2.710;2023-02-24T05:44:26;100715.59;;;11.44;100.00
54308;BME280;40208;39.778;2.710;2023-02-24T05:47:11;100709.31;;;11.28;100.00
54308;BME280;40208;39.778;2.710;2023-02-24T05:49:56;100693.66;;;11.22;100.00
54308;BME280;40208;39.778;2.710;2023-02-24T05:52:42;100696.00;;;11.11;100.00
54308;BME280;40208;39.778;2.710;2023-02-24T05:55:30;100709.91;;;11.16;100.00
54308;BME280;40208;39.778;2.710;2023-02-24T05:58:21;100703.91;;;10.93;100.00
54308;BME280;40208;39.778;2.710;2023-02-24T06:01:12;100707.94;;;10.83;100.00
54308;BME280;40208;39.778;2.710;2023-02-24T06:04:04;100704.56;;;10.79;100.00
54308;BME280;40208;39.778;2.710;2023-02-24T06:06:52;100701.69;;;10.84;100.00
54308;BME280;40208;39.778;2.710;2023-02-24T06:09:41;100710.75;;;10.80;100.00
54308;BME280;40208;39.778;2.710;2023-02-24T06:12:30;100722.16;;;10.63;100.00
54308;BME280;40208;39.778;2.710;2023-02-24T06:15:18;100715.06;;;10.64;100.00
54308;BME280;40208;39.778;2.710;2023-02-24T06:18:06;100710.81;;;10.59;100.00
54308;BME280;40208;39.778;2.710;2023-02-24T06:21:01;100718.94;;;10.56;100.00
54308;BME280;40208;39.778;2.710;2023-02-24T06:23:49;100711.19;;;10.71;100.00
54308;BME280;40208;39.778;2.710;2023-02-24T06:26:38;100711.31;;;10.49;100.00
54308;BME280;40208;39.778;2.710;2023-02-24T06:29:28;100711.00;;;10.36;100.00
54308;BME280;40208;39.778;2.710;2023-02-24T06:32:13;100721.91;;;10.30;100.00
54308;BME280;40208;39.778;2.710;2023-02-24T06:34:58;100720.34;;;10.24;100.00
54308;BME280;40208;39.778;2.710;2023-02-24T06:37:42;100724.53;;;10.09;100.00
54308;BME280;40208;39.778;2.710;2023-02-24T06:40:27;100728.25;;;10.05;100.00
54308;BME280;40208;39.778;2.710;2023-02-24T06:43:13;100730.09;;;10.03;100.00
54308;BME280;40208;39.778;2.710;2023-02-24T06:45:58;100729.56;;;10.15;100.00
54308;BME280;40208;39.778;2.710;2023-02-24T06:48:45;100723.56;;;10.32;100.00
54308;BME280;40208;39.778;2.710;2023-02-24T06:51:31;100722.06;;;10.46;100.00
54308;BME280;40208;39.778;2.710;2023-02-24T06:54:16;100730.63;;;10.32;100.00
54308;BME280;40208;39.778;2.710;2023-02-24T06:57:02;100740.31;;;10.12;100.00
54308;BME280;40208;39.778;2.710;2023-02-24T06:59:46;100743.06;;;10.11;100.00
54308;BME280;40208;39.778;2.710;2023-02-24T07:02:32;100754.84;;;10.04;100.00
54308;BME280;40208;39.778;2.710;2023-02-24T07:05:31;100749.84;;;9.96;100.00
54308;BME280;40208;39.778;2.710;2023-02-24T07:08:23;100746.28;;;9.97;100.00
54308;BME280;40208;39.778;2.710;2023-02-24T07:11:09;100745.94;;;9.84;100.00
54308;BME280;40208;39.778;2.710;2023-02-24T07:13:54;100752.56;;;9.74;100.00
54308;BME280;40208;39.778;2.710;2023-02-24T07:16:40;100759.00;;;9.89;100.00
54308;BME280;40208;39.778;2.710;2023-02-24T07:19:29;100758.75;;;9.95;100.00
54308;BME280;40208;39.778;2.710;2023-02-24T07:22:15;100768.94;;;9.84;100.00
54308;BME280;40208;39.778;2.710;2023-02-24T07:25:08;100765.50;;;9.82;100.00
54308;BME280;40208;39.778;2.710;2023-02-24T07:27:52;100769.88;;;9.83;100.00
54308;BME280;40208;39.778;2.710;2023-02-24T07:30:37;100779.41;;;9.87;100.00
54308;BME280;40208;39.778;2.710;2023-02-24T07:33:22;100786.38;;;9.89;100.00
54308;BME280;40208;39.778;2.710;2023-02-24T07:36:10;100791.66;;;9.89;100.00
54308;BME280;40208;39.778;2.710;2023-02-24T07:38:58;100794.63;;;10.04;100.00
54308;BME280;40208;39.778;2.710;2023-02-24T07:41:42;100802.09;;;10.14;100.00
54308;BME280;40208;39.778;2.710;2023-02-24T07:44:32;100797.06;;;10.08;100.00
54308;BME280;40208;39.778;2.710;2023-02-24T07:47:17;100802.84;;;10.18;100.00
54308;BME280;40208;39.778;2.710;2023-02-24T07:50:01;100813.19;;;10.24;100.00
54308;BME280;40208;39.778;2.710;2023-02-24T07:52:46;100812.19;;;10.27;100.00
54308;BME280;40208;39.778;2.710;2023-02-24T07:55:35;100812.66;;;10.36;100.00
54308;BME280;40208;39.778;2.710;2023-02-24T07:58:19;100822.09;;;10.44;100.00
54308;BME280;40208;39.778;2.710;2023-02-24T08:01:07;100821.78;;;10.51;100.00
54308;BME280;40208;39.778;2.710;2023-02-24T08:03:53;100821.41;;;10.59;100.00
54308;BME280;40208;39.778;2.710;2023-02-24T08:06:39;100820.94;;;10.70;100.00
54308;BME280;40208;39.778;2.710;2023-02-24T08:09:27;100822.97;;;10.83;100.00
54308;BME280;40208;39.778;2.710;2023-02-24T08:12:27;100820.25;;;10.85;100.00
54308;BME280;40208;39.778;2.710;2023-02-24T08:15:12;100815.59;;;10.90;100.00
54308;BME280;40208;39.778;2.710;2023-02-24T08:18:00;100826.69;;;10.98;100.00
54308;BME280;40208;39.778;2.710;2023-02-24T08:20:45;100823.63;;;11.08;100.00
54308;BME280;40208;39.778;2.710;2023-02-24T08:23:37;100821.28;;;11.01;100.00
54308;BME280;40208;39.778;2.710;2023-02-24T08:26:28;100825.47;;;11.06;100.00
54308;BME280;40208;39.778;2.710;2023-02-24T08:29:14;100821.69;;;11.11;100.00
54308;BME280;40208;39.778;2.710;2023-02-24T08:32:03;100818.88;;;11.14;100.00
54308;BME280;40208;39.778;2.710;2023-02-24T08:34:49;100818.66;;;11.19;100.00
54308;BME280;40208;39.778;2.710;2023-02-24T08:37:33;100820.53;;;11.17;100.00
54308;BME280;40208;39.778;2.710;2023-02-24T08:40:45;100820.53;;;11.17;100.00
54308;BME280;40208;39.778;2.710;2023-02-24T08:43:37;100814.09;;;11.22;100.00
54308;BME280;40208;39.778;2.710;2023-02-24T08:46:22;100813.88;;;11.27;100.00
54308;BME280;40208;39.778;2.710;2023-02-24T08:49:10;100810.84;;;11.35;100.00
54308;BME280;40208;39.778;2.710;2023-02-24T08:51:55;100822.81;;;11.43;100.00
54308;BME280;40208;39.778;2.710;2023-02-24T08:54:45;100814.41;;;11.53;100.00
54308;BME280;40208;39.778;2.710;2023-02-24T08:57:32;100816.31;;;11.68;100.00
54308;BME280;40208;39.778;2.710;2023-02-24T09:00:19;100815.41;;;11.86;100.00
54308;BME280;40208;39.778;2.710;2023-02-24T09:03:24;100808.50;;;12.01;100.00
54308;BME280;40208;39.778;2.710;2023-02-24T09:06:14;100807.56;;;12.20;100.00
54308;BME280;40208;39.778;2.710;2023-02-24T09:09:00;100805.78;;;12.54;100.00
54308;BME280;40208;39.778;2.710;2023-02-24T09:12:00;100797.06;;;12.67;100.00
54308;BME280;40208;39.778;2.710;2023-02-24T09:14:45;100797.06;;;12.83;100.00
54308;BME280;40208;39.778;2.710;2023-02-24T09:17:33;100799.59;;;13.02;100.00
54308;BME280;40208;39.778;2.710;2023-02-24T09:20:23;100794.22;;;13.20;100.00
54308;BME280;40208;39.778;2.710;2023-02-24T09:23:11;100795.25;;;13.33;100.00
54308;BME280;40208;39.778;2.710;2023-02-24T09:26:02;100803.06;;;13.52;100.00
54308;BME280;40208;39.778;2.710;2023-02-24T09:28:56;100799.81;;;13.63;100.00
54308;BME280;40208;39.778;2.710;2023-02-24T09:31:40;100805.31;;;13.60;100.00
54308;BME280;40208;39.778;2.710;2023-02-24T09:34:38;100802.19;;;13.67;100.00
54308;BME280;40208;39.778;2.710;2023-02-24T09:37:27;100804.16;;;13.79;100.00
54308;BME280;40208;39.778;2.710;2023-02-24T09:40:12;100807.91;;;13.91;100.00
54308;BME280;40208;39.778;2.710;2023-02-24T09:42:56;100808.31;;;13.99;100.00
54308;BME280;40208;39.778;2.710;2023-02-24T09:45:50;100803.56;;;14.05;100.00
54308;BME280;40208;39.778;2.710;2023-02-24T09:48:38;100807.69;;;14.10;100.00
54308;BME280;40208;39.778;2.710;2023-02-24T09:51:28;100808.00;;;14.20;100.00
54308;BME280;40208;39.778;2.710;2023-02-24T09:54:14;100810.13;;;14.29;100.00
54308;BME280;40208;39.778;2.710;2023-02-24T09:57:05;100810.59;;;14.36;100.00
54308;BME280;40208;39.778;2.710;2023-02-24T09:59:58;100807.38;;;14.45;100.00
54308;BME280;40208;39.778;2.710;2023-02-24T10:03:10;100804.06;;;14.56;100.00
54308;BME280;40208;39.778;2.710;2023-02-24T10:06:03;100798.25;;;14.63;100.00
54308;BME280;40208;39.778;2.710;2023-02-24T10:08:57;100787.13;;;14.71;100.00
54308;BME280;40208;39.778;2.710;2023-02-24T10:11:44;100795.56;;;14.78;100.00
54308;BME280;40208;39.778;2.710;2023-02-24T10:18:13;100790.16;;;14.79;100.00
54308;BME280;40208;39.778;2.710;2023-02-24T10:21:15;100791.69;;;14.83;100.00
54308;BME280;40208;39.778;2.710;2023-02-24T10:26:51;100782.31;;;14.91;100.00
54308;BME280;40208;39.778;2.710;2023-02-24T10:32:51;100769.47;;;15.24;100.00
54308;BME280;40208;39.778;2.710;2023-02-24T10:35:36;100776.84;;;15.48;100.00
54308;BME280;40208;39.778;2.710;2023-02-24T10:38:22;100773.91;;;15.65;100.00
54308;BME280;40208;39.778;2.710;2023-02-24T10:41:07;100759.66;;;15.92;100.00
54308;BME280;40208;39.778;2.710;2023-02-24T10:43:55;100767.28;;;16.11;100.00
54308;BME280;40208;39.778;2.710;2023-02-24T10:46:39;100765.38;;;16.39;100.00
54308;BME280;40208;39.778;2.710;2023-02-24T10:49:24;100767.06;;;16.65;100.00
54308;BME280;40208;39.778;2.710;2023-02-24T10:52:11;100760.44;;;16.84;100.00
54308;BME280;40208;39.778;2.710;2023-02-24T10:58:31;100760.34;;;17.46;100.00
54308;BME280;40208;39.778;2.710;2023-02-24T11:01:28;100758.56;;;17.58;100.00
54308;BME280;40208;39.778;2.710;2023-02-24T11:04:38;100756.69;;;17.71;100.00
54308;BME280;40208;39.778;2.710;2023-02-24T11:07:37;100758.38;;;17.72;100.00
54308;BME280;40208;39.778;2.710;2023-02-24T11:10:51;100762.78;;;17.97;100.00
54308;BME280;40208;39.778;2.710;2023-02-24T11:13:52;100770.66;;;18.12;100.00
54308;BME280;40208;39.778;2.710;2023-02-24T11:16:56;100756.41;;;18.34;100.00
54308;BME280;40208;39.778;2.710;2023-02-24T11:20:02;100769.72;;;18.35;100.00
54308;BME280;40208;39.778;2.710;2023-02-24T11:22:55;100763.13;;;18.39;100.00
54308;BME280;40208;39.778;2.710;2023-02-24T11:25:41;100766.69;;;18.40;100.00
54308;BME280;40208;39.778;2.710;2023-02-24T11:37:36;100743.56;;;18.26;100.00
54308;BME280;40208;39.778;2.710;2023-02-24T11:40:29;100730.13;;;18.26;100.00
54308;BME280;40208;39.778;2.710;2023-02-24T11:43:16;100745.44;;;18.37;100.00
54308;BME280;40208;39.778;2.710;2023-02-24T11:46:04;100746.75;;;18.42;100.00
54308;BME280;40208;39.778;2.710;2023-02-24T11:48:52;100743.69;;;18.36;100.00
54308;BME280;40208;39.778;2.710;2023-02-24T11:51:40;100745.53;;;18.35;100.00
54308;BME280;40208;39.778;2.710;2023-02-24T11:54:25;100737.34;;;18.26;100.00
54308;BME280;40208;39.778;2.710;2023-02-24T11:57:14;100738.44;;;18.23;100.00
54308;BME280;40208;39.778;2.710;2023-02-24T12:00:03;100733.06;;;18.23;100.00
54308;BME280;40208;39.778;2.710;2023-02-24T12:06:12;100707.16;;;18.11;100.00
54308;BME280;40208;39.778;2.710;2023-02-24T12:08:59;100700.81;;;18.12;100.00
54308;BME280;40208;39.778;2.710;2023-02-24T12:14:51;100669.44;;;18.01;100.00
54308;BME280;40208;39.778;2.710;2023-02-24T12:17:40;100657.09;;;17.87;100.00
54308;BME280;40208;39.778;2.710;2023-02-24T12:20:29;100650.56;;;17.78;100.00
54308;BME280;40208;39.778;2.710;2023-02-24T12:23:18;100632.97;;;17.74;100.00
54308;BME280;40208;39.778;2.710;2023-02-24T12:29:08;100631.53;;;17.70;100.00
54308;BME280;40208;39.778;2.710;2023-02-24T12:32:00;100629.06;;;17.67;100.00
54308;BME280;40208;39.778;2.710;2023-02-24T12:38:03;100605.09;;;17.42;100.00
54308;BME280;40208;39.778;2.710;2023-02-24T12:52:57;100593.66;;;17.15;100.00
54308;BME280;40208;39.778;2.710;2023-02-24T12:59:03;100603.03;;;17.10;100.00
54308;BME280;40208;39.778;2.710;2023-02-24T13:04:49;100600.09;;;17.02;100.00
54308;BME280;40208;39.778;2.710;2023-02-24T13:10:28;100600.34;;;16.86;100.00
54308;BME280;40208;39.778;2.710;2023-02-24T13:16:34;100610.34;;;16.84;100.00
54308;BME280;40208;39.778;2.710;2023-02-24T13:19:20;100622.66;;;16.86;100.00
54308;BME280;40208;39.778;2.710;2023-02-24T13:27:56;100610.72;;;16.66;100.00
54308;BME280;40208;39.778;2.710;2023-02-24T13:30:45;100592.72;;;16.56;100.00
54308;BME280;40208;39.778;2.710;2023-02-24T13:33:31;100573.44;;;16.50;100.00
54308;BME280;40208;39.778;2.710;2023-02-24T13:36:23;100567.16;;;16.51;100.00
54308;BME280;40208;39.778;2.710;2023-02-24T13:39:19;100571.97;;;16.46;100.00
54308;BME280;40208;39.778;2.710;2023-02-24T13:56:55;100564.97;;;16.20;100.00
54308;BME280;40208;39.778;2.710;2023-02-24T13:59:43;100559.50;;;16.21;100.00
54308;BME280;40208;39.778;2.710;2023-02-24T14:02:34;100558.53;;;16.35;100.00
54308;BME280;40208;39.778;2.710;2023-02-24T14:08:07;100548.84;;;16.45;100.00
54308;BME280;40208;39.778;2.710;2023-02-24T14:10:53;100542.47;;;16.59;100.00
54308;BME280;40208;39.778;2.710;2023-02-24T14:13:40;100540.88;;;16.57;100.00
54308;BME280;40208;39.778;2.710;2023-02-24T14:16:33;100529.69;;;16.63;100.00
54308;BME280;40208;39.778;2.710;2023-02-24T14:19:22;100533.25;;;16.74;100.00
54308;BME280;40208;39.778;2.710;2023-02-24T14:22:13;100538.00;;;16.71;100.00
54308;BME280;40208;39.778;2.710;2023-02-24T14:25:01;100549.66;;;16.83;100.00
54308;BME280;40208;39.778;2.710;2023-02-24T14:27:47;100554.09;;;16.71;100.00
54308;BME280;40208;39.778;2.710;2023-02-24T14:30:34;100556.88;;;16.69;100.00
54308;BME280;40208;39.778;2.710;2023-02-24T14:33:22;100553.34;;;16.69;100.00
54308;BME280;40208;39.778;2.710;2023-02-24T14:36:25;100552.88;;;16.75;100.00
54308;BME280;40208;39.778;2.710;2023-02-24T14:44:53;100556.28;;;16.77;100.00
54308;BME280;40208;39.778;2.710;2023-02-24T14:47:39;100544.31;;;16.70;100.00
54308;BME280;40208;39.778;2.710;2023-02-24T14:50:31;100543.81;;;16.65;100.00
54308;BME280;40208;39.778;2.710;2023-02-24T14:53:19;100545.34;;;16.56;100.00
54308;BME280;40208;39.778;2.710;2023-02-24T14:56:05;100550.09;;;16.52;100.00
54308;BME280;40208;39.778;2.710;2023-02-24T14:58:51;100545.72;;;16.51;100.00
54308;BME280;40208;39.778;2.710;2023-02-24T15:01:42;100535.94;;;16.50;100.00
54308;BME280;40208;39.778;2.710;2023-02-24T15:07:22;100553.53;;;16.42;100.00
54308;BME280;40208;39.778;2.710;2023-02-24T15:10:15;100542.56;;;16.33;100.00
54308;BME280;40208;39.778;2.710;2023-02-24T15:13:08;100538.38;;;16.29;100.00
54308;BME280;40208;39.778;2.710;2023-02-24T15:15:54;100534.09;;;16.27;100.00
54308;BME280;40208;39.778;2.710;2023-02-24T15:18:40;100525.78;;;16.19;100.00
54308;BME280;40208;39.778;2.710;2023-02-24T15:21:29;100529.97;;;16.10;100.00
54308;BME280;40208;39.778;2.710;2023-02-24T15:32:47;100513.59;;;16.15;100.00
54308;BME280;40208;39.778;2.710;2023-02-24T15:35:32;100502.97;;;16.13;100.00
54308;BME280;40208;39.778;2.710;2023-02-24T15:38:37;100500.75;;;16.07;100.00
54308;BME280;40208;39.778;2.710;2023-02-24T15:41:36;100490.81;;;15.96;100.00
54308;BME280;40208;39.778;2.710;2023-02-24T15:44:27;100487.53;;;15.93;100.00
54308;BME280;40208;39.778;2.710;2023-02-24T15:50:21;100480.47;;;15.79;100.00
54308;BME280;40208;39.778;2.710;2023-02-24T15:53:06;100492.38;;;15.75;100.00
54308;BME280;40208;39.778;2.710;2023-02-24T15:55:52;100499.53;;;15.74;100.00
54308;BME280;40208;39.778;2.710;2023-02-24T15:58:36;100496.00;;;15.74;100.00
54308;BME280;40208;39.778;2.710;2023-02-24T16:01:21;100502.09;;;15.63;100.00
54308;BME280;40208;39.778;2.710;2023-02-24T16:04:05;100504.31;;;15.56;100.00
54308;BME280;40208;39.778;2.710;2023-02-24T16:06:53;100500.28;;;15.51;100.00
54308;BME280;40208;39.778;2.710;2023-02-24T16:09:39;100499.31;;;15.52;100.00
54308;BME280;40208;39.778;2.710;2023-02-24T16:12:25;100509.69;;;15.56;100.00
54308;BME280;40208;39.778;2.710;2023-02-24T16:15:18;100512.69;;;15.52;100.00
54308;BME280;40208;39.778;2.710;2023-02-24T16:18:03;100494.19;;;15.36;100.00
54308;BME280;40208;39.778;2.710;2023-02-24T16:20:51;100490.13;;;15.43;100.00
54308;BME280;40208;39.778;2.710;2023-02-24T16:23:39;100480.69;;;15.37;100.00
54308;BME280;40208;39.778;2.710;2023-02-24T16:26:24;100485.06;;;15.25;100.00
54308;BME280;40208;39.778;2.710;2023-02-24T16:29:11;100480.59;;;15.39;100.00
54308;BME280;40208;39.778;2.710;2023-02-24T16:31:57;100481.34;;;15.41;100.00
54308;BME280;40208;39.778;2.710;2023-02-24T16:34:41;100488.00;;;15.35;100.00
54308;BME280;40208;39.778;2.710;2023-02-24T16:37:26;100479.63;;;15.27;100.00
54308;BME280;40208;39.778;2.710;2023-02-24T16:43:09;100473.00;;;15.20;100.00